createdAt,value
2018-06-11T00:02:03.885Z,100184.73
2018-06-11T00:04:32.578Z,100177.45
2018-06-11T00:07:01.346Z,100167.47
2018-06-11T00:09:30.090Z,100171.19
2018-06-11T00:11:59.025Z,100164.92
2018-06-11T00:14:27.743Z,100166.78
2018-06-11T00:16:56.474Z,100165.11
2018-06-11T00:19:25.214Z,100156.80
2018-06-11T00:21:53.947Z,100156.45
2018-06-11T00:24:22.781Z,100152.38
2018-06-11T00:26:51.498Z,100150.22
2018-06-11T00:29:20.241Z,100149.67
2018-06-11T00:31:48.941Z,100135.81
2018-06-11T00:34:17.990Z,100142.59
2018-06-11T00:36:46.992Z,100141.73
2018-06-11T00:39:16.086Z,100133.80
2018-06-11T00:41:45.073Z,100131.91
2018-06-11T00:44:14.020Z,100132.11
2018-06-11T00:46:42.964Z,100138.37
2018-06-11T00:49:12.067Z,100138.87
2018-06-11T00:51:40.999Z,100124.16
2018-06-11T00:54:09.982Z,100120.92
2018-06-11T00:56:38.947Z,100119.76
2018-06-11T00:59:07.714Z,100113.45
2018-06-11T01:01:36.492Z,100118.03
2018-06-11T01:04:05.358Z,100119.92
2018-06-11T01:06:34.292Z,100115.51
2018-06-11T01:09:03.240Z,100107.38
2018-06-11T01:11:32.185Z,100111.64
2018-06-11T01:14:01.185Z,100111.09
2018-06-11T01:16:30.313Z,100127.34
2018-06-11T01:18:59.165Z,100121.43
2018-06-11T01:21:28.108Z,100100.80
2018-06-11T01:23:57.142Z,100100.27
2018-06-11T01:26:26.139Z,100108.92
2018-06-11T01:28:55.023Z,100103.51
2018-06-11T01:31:23.931Z,100110.28
2018-06-11T01:33:52.860Z,100104.02
2018-06-11T01:36:21.897Z,100093.69
2018-06-11T01:38:50.677Z,100088.61
2018-06-11T01:41:19.696Z,100091.32
2018-06-11T01:43:48.364Z,100094.84
2018-06-11T01:46:17.057Z,100086.22
2018-06-11T01:48:45.773Z,100074.53
2018-06-11T01:51:14.489Z,100077.24
2018-06-11T01:53:43.174Z,100081.84
2018-06-11T01:56:12.001Z,100076.93
2018-06-11T01:58:40.790Z,100067.26
2018-06-11T02:01:09.692Z,100070.47
2018-06-11T02:03:38.421Z,100074.53
2018-06-11T02:06:07.174Z,100071.32
2018-06-11T02:08:35.891Z,100078.59
2018-06-11T02:11:04.657Z,100077.24
2018-06-11T02:13:33.345Z,100078.59
2018-06-11T02:16:02.171Z,100073.18
2018-06-11T02:18:30.956Z,100069.66
2018-06-11T02:20:59.745Z,100075.89
2018-06-11T02:23:28.463Z,100075.39
2018-06-11T02:25:57.207Z,100070.47
2018-06-11T02:28:25.938Z,100074.88
2018-06-11T02:30:54.665Z,100066.75
2018-06-11T02:33:23.378Z,100062.34
2018-06-11T02:35:52.080Z,100061.84
2018-06-11T02:38:20.887Z,100060.17
2018-06-11T02:40:49.639Z,100058.28
2018-06-11T02:43:18.349Z,100055.58
2018-06-11T02:45:47.032Z,100056.93
2018-06-11T02:48:15.774Z,100053.41
2018-06-11T02:50:44.591Z,100039.86
2018-06-11T02:53:13.315Z,100037.97
2018-06-11T02:55:42.212Z,100031.74
2018-06-11T02:58:12.057Z,100030.89
2018-06-11T03:00:40.741Z,100036.81
2018-06-11T03:03:09.476Z,100035.96
2018-06-11T03:05:38.206Z,100041.06
2018-06-11T03:08:06.977Z,100040.22
2018-06-11T03:10:35.677Z,100058.33
2018-06-11T03:13:04.624Z,100070.86
2018-06-11T03:15:33.571Z,100053.41
2018-06-11T03:18:02.287Z,100044.78
2018-06-11T03:20:31.271Z,100049.69
2018-06-11T03:23:00.315Z,100047.65
2018-06-11T03:25:29.210Z,100045.28
2018-06-11T03:27:57.937Z,100041.73
2018-06-11T03:30:26.716Z,100037.35
2018-06-11T03:32:55.708Z,100038.70
2018-06-11T03:35:24.623Z,100038.70
2018-06-11T03:37:53.360Z,100046.83
2018-06-11T03:40:22.198Z,100043.59
2018-06-11T03:42:51.081Z,100034.30
2018-06-11T03:45:19.969Z,100041.58
2018-06-11T03:47:48.785Z,100039.72
2018-06-11T03:50:17.507Z,100035.16
2018-06-11T03:52:46.514Z,100040.73
2018-06-11T03:55:15.547Z,100035.31
2018-06-11T03:57:44.386Z,100046.48
2018-06-11T04:00:13.082Z,100038.36
2018-06-11T04:02:41.816Z,100041.42
2018-06-11T04:05:10.867Z,100037.52
2018-06-11T04:07:39.756Z,100036.50
2018-06-11T04:10:08.534Z,100043.59
2018-06-11T04:12:37.476Z,100034.65
2018-06-11T04:15:06.351Z,100036.81
2018-06-11T04:17:35.313Z,100038.70
2018-06-11T04:20:04.357Z,100040.37
2018-06-11T04:22:33.027Z,100036.00
2018-06-11T04:25:02.258Z,100038.70
2018-06-11T04:27:31.179Z,100033.61
2018-06-11T04:29:59.986Z,100036.50
2018-06-11T04:32:28.770Z,100043.08
2018-06-11T04:34:57.601Z,100028.69
2018-06-11T04:37:26.664Z,100034.95
2018-06-11T04:39:55.514Z,100038.52
2018-06-11T04:42:24.481Z,100046.14
2018-06-11T04:44:53.257Z,100040.37
2018-06-11T04:47:22.258Z,100036.31
2018-06-11T04:49:51.210Z,100043.43
2018-06-11T04:52:20.183Z,100040.22
2018-06-11T04:54:49.062Z,100038.52
2018-06-11T04:57:17.778Z,100037.16
2018-06-11T04:59:46.669Z,100035.81
2018-06-11T05:02:15.543Z,100041.57
2018-06-11T05:04:44.302Z,100036.16
2018-06-11T05:07:13.314Z,100037.51
2018-06-11T05:09:42.303Z,100039.71
2018-06-11T05:12:11.223Z,100045.63
2018-06-11T05:14:40.062Z,100054.61
2018-06-11T05:17:08.994Z,100045.28
2018-06-11T05:19:37.753Z,100044.78
2018-06-11T05:22:06.475Z,100041.73
2018-06-11T05:24:35.299Z,100049.35
2018-06-11T05:27:04.163Z,100044.78
2018-06-11T05:29:32.922Z,100044.44
2018-06-11T05:32:01.865Z,100044.13
2018-06-11T05:34:30.713Z,100045.79
2018-06-11T05:36:59.470Z,100046.64
2018-06-11T05:39:28.492Z,100049.00
2018-06-11T05:41:57.501Z,100041.92
2018-06-11T05:44:26.213Z,100041.07
2018-06-11T05:46:55.033Z,100045.98
2018-06-11T05:49:23.983Z,100042.42
2018-06-11T05:51:52.949Z,100045.33
2018-06-11T05:54:23.469Z,100040.73
2018-06-11T05:56:52.364Z,100045.83
2018-06-11T05:59:21.204Z,100044.13
2018-06-11T06:01:50.003Z,100040.06
2018-06-11T06:04:18.705Z,100044.63
2018-06-11T06:06:47.603Z,100059.02
2018-06-11T06:09:16.308Z,100058.70
2018-06-11T06:11:45.106Z,100054.65
2018-06-11T06:14:13.852Z,100045.67
2018-06-11T06:16:42.637Z,100048.38
2018-06-11T06:19:11.736Z,100038.05
2018-06-11T06:21:40.602Z,100034.84
2018-06-11T06:24:09.613Z,100027.03
2018-06-11T06:26:38.371Z,100028.92
2018-06-11T06:29:07.138Z,100031.09
2018-06-11T06:31:35.809Z,100037.36
2018-06-11T06:34:04.801Z,100035.50
2018-06-11T06:36:33.770Z,100037.70
2018-06-11T06:39:02.693Z,100042.62
2018-06-11T06:41:31.544Z,100044.63
2018-06-11T06:44:00.398Z,100034.95
2018-06-11T06:46:29.125Z,100039.87
2018-06-11T06:48:57.847Z,100029.38
2018-06-11T06:51:26.829Z,100038.16
2018-06-11T06:53:55.545Z,100032.05
2018-06-11T06:56:24.391Z,100029.19
2018-06-11T06:58:53.233Z,100031.23
2018-06-11T07:01:22.033Z,100036.45
2018-06-11T07:03:50.717Z,100040.36
2018-06-11T07:06:19.419Z,100034.75
2018-06-11T07:08:48.300Z,100035.09
2018-06-11T07:11:17.058Z,100029.13
2018-06-11T07:13:45.829Z,100029.48
2018-06-11T07:16:14.849Z,100024.91
2018-06-11T07:18:43.947Z,100017.33
2018-06-11T07:21:12.677Z,100027.11
2018-06-11T07:23:41.522Z,100025.76
2018-06-11T07:26:10.193Z,100024.41
2018-06-11T07:28:39.166Z,100022.20
2018-06-11T07:31:08.387Z,100024.91
2018-06-11T07:33:37.134Z,100034.73
2018-06-11T07:36:05.838Z,100029.82
2018-06-11T07:38:34.569Z,100033.69
2018-06-11T07:41:03.362Z,100027.27
2018-06-11T07:43:32.105Z,100025.22
2018-06-11T07:46:01.052Z,100023.86
2018-06-11T07:48:29.805Z,100023.16
2018-06-11T07:50:58.533Z,100020.29
2018-06-11T07:53:27.297Z,100017.05
2018-06-11T07:55:56.030Z,100008.91
2018-06-11T07:58:24.720Z,100008.91
2018-06-11T08:00:53.493Z,100007.40
2018-06-11T08:03:22.226Z,100011.27
2018-06-11T08:05:50.949Z,100001.28
2018-06-11T08:08:19.724Z,100005.15
2018-06-11T08:10:48.497Z,100007.86
2018-06-11T08:13:17.199Z,100000.08
2018-06-11T08:15:46.356Z,100000.92
2018-06-11T08:18:15.131Z,99995.50
2018-06-11T08:20:43.966Z,99997.86
2018-06-11T08:23:12.828Z,99995.15
2018-06-11T08:25:41.534Z,99990.89
2018-06-11T08:28:10.357Z,99981.23
2018-06-11T08:30:39.062Z,99984.26
2018-06-11T08:33:07.787Z,99989.52
2018-06-11T08:35:36.459Z,99985.59
2018-06-11T08:38:05.294Z,99988.62
2018-06-11T08:40:33.976Z,99989.47
2018-06-11T08:43:02.685Z,99996.08
2018-06-11T08:45:31.465Z,99993.37
2018-06-11T08:48:01.137Z,99988.77
2018-06-11T08:50:29.826Z,99979.82
2018-06-11T08:52:58.570Z,99981.32
2018-06-11T08:55:27.339Z,99982.14
2018-06-11T08:57:56.089Z,99984.69
2018-06-11T09:00:24.778Z,99982.82
2018-06-11T09:02:53.593Z,99942.69
2018-06-11T09:05:22.305Z,99976.70
2018-06-11T09:07:51.034Z,99981.08
2018-06-11T09:10:19.738Z,99980.91
2018-06-11T09:12:48.473Z,99988.00
2018-06-11T09:15:17.235Z,99979.86
2018-06-11T09:17:47.312Z,99984.98
2018-06-11T09:20:16.098Z,99991.25
2018-06-11T09:22:44.894Z,99977.69
2018-06-11T09:25:13.716Z,99980.25
2018-06-11T09:27:42.742Z,99972.13
2018-06-11T09:30:11.613Z,99973.48
2018-06-11T09:32:40.932Z,99975.84
2018-06-11T09:35:10.039Z,99976.36
2018-06-11T09:37:39.018Z,99970.42
2018-06-11T09:40:07.977Z,99968.92
2018-06-11T09:42:36.913Z,99973.84
2018-06-11T09:45:05.771Z,99967.58
2018-06-11T09:47:34.867Z,99961.30
2018-06-11T09:50:03.995Z,99964.86
2018-06-11T09:52:32.945Z,99962.34
2018-06-11T09:55:01.823Z,99952.54
2018-06-11T09:57:30.810Z,99954.72
2018-06-11T09:59:59.762Z,99960.14
2018-06-11T10:02:28.646Z,99955.73
2018-06-11T10:04:57.691Z,99954.89
2018-06-11T10:07:26.528Z,99953.03
2018-06-11T10:09:55.546Z,99955.73
2018-06-11T10:12:24.563Z,99950.31
2018-06-11T10:14:53.373Z,99945.41
2018-06-11T10:17:22.333Z,99943.55
2018-06-11T10:19:51.246Z,99950.66
2018-06-11T10:22:20.144Z,99951.51
2018-06-11T10:24:49.260Z,99952.02
2018-06-11T10:27:18.337Z,99946.91
2018-06-11T10:29:47.398Z,99943.38
2018-06-11T10:32:16.474Z,99946.91
2018-06-11T10:34:45.571Z,99937.42
2018-06-11T10:37:14.475Z,99936.41
2018-06-11T10:39:43.476Z,99928.78
2018-06-11T10:42:12.372Z,99934.20
2018-06-11T10:44:41.250Z,99933.70
2018-06-11T10:47:10.302Z,99936.91
2018-06-11T10:49:39.158Z,99939.63
2018-06-11T10:52:08.284Z,99947.44
2018-06-11T10:54:37.345Z,99947.95
2018-06-11T10:57:06.048Z,99950.31
2018-06-11T10:59:34.946Z,99952.18
2018-06-11T11:02:03.855Z,99954.75
2018-06-11T11:04:32.839Z,99939.53
2018-06-11T11:07:01.840Z,99940.88
2018-06-11T11:09:30.734Z,99941.05
2018-06-11T11:11:59.659Z,99950.03
2018-06-11T11:14:28.681Z,99940.39
2018-06-11T11:16:57.654Z,99931.42
2018-06-11T11:19:26.483Z,99938.70
2018-06-11T11:21:55.224Z,99936.84
2018-06-11T11:24:24.170Z,99940.59
2018-06-11T11:26:52.911Z,99937.34
2018-06-11T11:29:21.847Z,99935.98
2018-06-11T11:31:50.665Z,99933.82
2018-06-11T11:34:19.589Z,99928.71
2018-06-11T11:36:48.635Z,99930.27
2018-06-11T11:39:17.583Z,99935.48
2018-06-11T11:41:46.344Z,99936.53
2018-06-11T11:44:15.302Z,99936.53
2018-06-11T11:46:44.293Z,99938.20
2018-06-11T11:49:13.469Z,99931.11
2018-06-11T11:51:43.258Z,99925.16
2018-06-11T11:54:12.066Z,99915.86
2018-06-11T11:56:40.885Z,99926.51
2018-06-11T11:59:09.718Z,99918.92
2018-06-11T12:01:38.459Z,99914.85
2018-06-11T12:04:07.514Z,99908.08
2018-06-11T12:06:36.574Z,99904.02
2018-06-11T12:09:07.304Z,99904.02
2018-06-11T12:11:36.651Z,99902.66
2018-06-11T12:14:05.812Z,99900.77
2018-06-11T12:16:34.503Z,99897.23
2018-06-11T12:19:03.579Z,99891.82
2018-06-11T12:21:32.554Z,99901.61
2018-06-11T12:24:01.476Z,99896.70
2018-06-11T12:26:30.360Z,99889.11
2018-06-11T12:28:59.102Z,99886.71
2018-06-11T12:31:28.081Z,99888.27
2018-06-11T12:33:56.970Z,99893.17
2018-06-11T12:36:25.885Z,99891.82
2018-06-11T12:38:54.983Z,99889.11
2018-06-11T12:41:24.002Z,99885.55
2018-06-11T12:43:52.718Z,99881.80
2018-06-11T12:46:21.590Z,99877.23
2018-06-11T12:48:50.393Z,99888.57
2018-06-11T12:51:19.122Z,99876.92
2018-06-11T12:53:48.173Z,99881.80
2018-06-11T12:56:17.178Z,99879.43
2018-06-11T12:58:46.165Z,99888.27
2018-06-11T13:01:14.945Z,99876.92
2018-06-11T13:03:43.731Z,99875.56
2018-06-11T13:06:12.544Z,99870.95
2018-06-11T13:08:41.524Z,99874.20
2018-06-11T13:11:10.523Z,99878.78
2018-06-11T13:13:39.256Z,99874.20
2018-06-11T13:16:08.264Z,99878.78
2018-06-11T13:18:37.304Z,99876.58
2018-06-11T13:21:06.248Z,99877.08
2018-06-11T13:23:35.383Z,99869.46
2018-06-11T13:26:04.640Z,99870.31
2018-06-11T13:28:33.685Z,99861.02
2018-06-11T13:31:02.747Z,99865.59
2018-06-11T13:33:31.731Z,99864.24
2018-06-11T13:36:00.590Z,99863.73
2018-06-11T13:38:29.470Z,99862.04
2018-06-11T13:40:58.354Z,99862.04
2018-06-11T13:43:27.448Z,99860.69
2018-06-11T13:45:56.443Z,99861.73
2018-06-11T13:48:25.519Z,99860.38
2018-06-11T13:50:54.435Z,99847.84
2018-06-11T13:53:23.611Z,99858.17
2018-06-11T13:55:52.820Z,99854.61
2018-06-11T13:58:21.493Z,99851.40
2018-06-11T14:00:50.515Z,99851.91
2018-06-11T14:03:19.295Z,99847.84
2018-06-11T14:05:48.085Z,99845.13
2018-06-11T14:08:16.825Z,99841.07
2018-06-11T14:10:45.549Z,99845.13
2018-06-11T14:13:14.322Z,99841.91
2018-06-11T14:15:43.075Z,99838.16
2018-06-11T14:18:11.760Z,99835.98
2018-06-11T14:20:40.509Z,99835.45
2018-06-11T14:23:09.318Z,99836.30
2018-06-11T14:25:38.130Z,99840.36
2018-06-11T14:28:06.880Z,99838.50
2018-06-11T14:30:35.610Z,99838.16
2018-06-11T14:33:04.361Z,99836.30
2018-06-11T14:35:33.088Z,99837.15
2018-06-11T14:38:01.989Z,99837.15
2018-06-11T14:40:30.749Z,99838.84
2018-06-11T14:42:59.460Z,99839.34
2018-06-11T14:45:28.334Z,99835.28
2018-06-11T14:47:57.025Z,99839.34
2018-06-11T14:50:26.122Z,99835.28
2018-06-11T14:52:54.965Z,99832.07
2018-06-11T14:55:23.920Z,99833.59
2018-06-11T14:57:53.071Z,99830.38
2018-06-11T15:00:21.961Z,99829.02
2018-06-11T15:02:50.874Z,99826.31
2018-06-11T15:05:19.896Z,99827.66
2018-06-11T15:07:48.678Z,99824.11
2018-06-11T15:10:17.623Z,99821.40
2018-06-11T15:12:47.407Z,99818.69
2018-06-11T15:15:16.163Z,99814.62
2018-06-11T15:17:45.230Z,99818.69
2018-06-11T15:20:14.091Z,99811.06
2018-06-11T15:22:42.918Z,99813.27
2018-06-11T15:25:12.057Z,99816.83
2018-06-11T15:27:40.765Z,99807.85
2018-06-11T15:30:09.680Z,99811.91
2018-06-11T15:32:38.486Z,99808.36
2018-06-11T15:35:07.555Z,99805.14
2018-06-11T15:37:36.409Z,99799.42
2018-06-11T15:40:05.263Z,99795.35
2018-06-11T15:42:34.226Z,99798.06
2018-06-11T15:45:03.790Z,99793.66
2018-06-11T15:47:32.616Z,99789.08
2018-06-11T15:50:01.677Z,99786.55
2018-06-11T15:52:30.516Z,99786.55
2018-06-11T15:54:59.417Z,99782.98
2018-06-11T15:57:28.402Z,99777.06
2018-06-11T15:59:57.420Z,99775.41
2018-06-11T16:02:26.607Z,99780.48
2018-06-11T16:04:55.672Z,99772.86
2018-06-11T16:07:24.650Z,99776.08
2018-06-11T16:09:53.745Z,99768.48
2018-06-11T16:12:22.785Z,99769.30
2018-06-11T16:14:51.771Z,99766.59
2018-06-11T16:17:20.630Z,99766.09
2018-06-11T16:19:49.384Z,99766.59
2018-06-11T16:22:18.558Z,99764.93
2018-06-11T16:24:47.981Z,99766.28
2018-06-11T16:27:17.068Z,99760.02
2018-06-11T16:29:45.839Z,99757.82
2018-06-11T16:32:14.578Z,99764.09
2018-06-11T16:34:43.636Z,99761.38
2018-06-11T16:37:12.562Z,99759.68
2018-06-11T16:39:41.413Z,99760.53
2018-06-11T16:42:11.045Z,99755.11
2018-06-11T16:44:39.786Z,99746.14
2018-06-11T16:47:08.548Z,99756.66
2018-06-11T16:49:37.297Z,99754.80
2018-06-11T16:52:06.058Z,99752.41
2018-06-11T16:54:35.308Z,99754.80
2018-06-11T16:57:04.110Z,99748.34
2018-06-11T16:59:32.857Z,99745.12
2018-06-11T17:02:01.685Z,99745.46
2018-06-11T17:04:30.575Z,99737.84
2018-06-11T17:06:59.301Z,99734.63
2018-06-11T17:09:28.103Z,99731.38
2018-06-11T17:11:56.877Z,99727.85
2018-06-11T17:14:25.902Z,99730.02
2018-06-11T17:16:54.727Z,99721.89
2018-06-11T17:19:24.644Z,99723.59
2018-06-11T17:21:53.751Z,99720.03
2018-06-11T17:24:22.759Z,99723.08
2018-06-11T17:26:51.878Z,99722.23
2018-06-11T17:29:20.937Z,99716.30
2018-06-11T17:31:50.051Z,99721.22
2018-06-11T17:34:18.858Z,99714.95
2018-06-11T17:36:47.876Z,99708.69
2018-06-11T17:39:17.071Z,99710.38
2018-06-11T17:41:46.112Z,99709.03
2018-06-11T17:44:15.012Z,99707.67
2018-06-11T17:46:44.113Z,99703.61
2018-06-11T17:49:13.249Z,99702.25
2018-06-11T17:51:42.087Z,99699.20
2018-06-11T17:54:10.847Z,99698.70
2018-06-11T17:56:40.656Z,99697.65
2018-06-11T17:59:09.701Z,99695.48
2018-06-11T18:01:38.484Z,99698.70
2018-06-11T18:04:07.662Z,99693.28
2018-06-11T18:06:36.771Z,99700.36
2018-06-11T18:09:08.228Z,99695.98
2018-06-11T18:11:37.578Z,99694.13
2018-06-11T18:14:06.423Z,99689.52
2018-06-11T18:16:35.231Z,99687.86
2018-06-11T18:19:04.313Z,99693.28
2018-06-11T18:21:33.071Z,99685.66
2018-06-11T18:24:01.893Z,99686.17
2018-06-11T18:26:30.729Z,99683.46
2018-06-11T18:28:59.460Z,99692.09
2018-06-11T18:31:28.251Z,99690.73
2018-06-11T18:33:57.029Z,99685.86
2018-06-11T18:36:26.149Z,99686.88
2018-06-11T18:38:54.909Z,99683.83
2018-06-11T18:41:24.136Z,99686.03
2018-06-11T18:43:53.172Z,99686.54
2018-06-11T18:46:22.319Z,99684.88
2018-06-11T18:48:51.455Z,99683.19
2018-06-11T18:51:20.368Z,99690.30
2018-06-11T18:53:49.121Z,99689.66
2018-06-11T18:56:17.886Z,99704.55
2018-06-11T18:58:46.724Z,99705.05
2018-06-11T19:01:15.563Z,99710.98
2018-06-11T19:03:44.454Z,99718.77
2018-06-11T19:06:13.463Z,99718.46
2018-06-11T19:08:42.263Z,99726.59
2018-06-11T19:11:11.054Z,99724.39
2018-06-11T19:13:39.799Z,99723.54
2018-06-11T19:16:08.660Z,99722.70
2018-06-11T19:18:37.453Z,99726.45
2018-06-11T19:21:06.454Z,99731.53
2018-06-11T19:23:35.329Z,99726.62
2018-06-11T19:26:04.230Z,99728.81
2018-06-11T19:28:33.209Z,99728.48
2018-06-11T19:31:01.982Z,99736.09
2018-06-11T19:33:30.901Z,99739.85
2018-06-11T19:35:59.812Z,99737.95
2018-06-11T19:38:28.645Z,99734.44
2018-06-11T19:40:57.567Z,99742.02
2018-06-11T19:43:26.642Z,99739.00
2018-06-11T19:45:55.458Z,99732.23
2018-06-11T19:48:24.566Z,99743.38
2018-06-11T19:50:54.801Z,99731.39
2018-06-11T19:53:23.805Z,99726.48
2018-06-11T19:55:52.695Z,99731.39
2018-06-11T19:58:21.629Z,99727.33
2018-06-11T20:00:50.464Z,99730.54
2018-06-11T20:03:19.199Z,99737.31
2018-06-11T20:05:47.983Z,99738.67
2018-06-11T20:08:17.028Z,99734.60
2018-06-11T20:10:46.276Z,99733.75
2018-06-11T20:13:15.129Z,99730.54
2018-06-11T20:15:43.907Z,99728.88
2018-06-11T20:18:12.693Z,99724.81
2018-06-11T20:20:42.630Z,99730.23
2018-06-11T20:23:11.760Z,99723.97
2018-06-11T20:25:40.887Z,99723.97
2018-06-11T20:28:10.008Z,99722.61
2018-06-11T20:30:38.748Z,99731.59
2018-06-11T20:33:07.548Z,99733.95
2018-06-11T20:35:36.347Z,99740.39
2018-06-11T20:38:05.106Z,99746.65
2018-06-11T20:40:34.035Z,99752.06
2018-06-11T20:43:02.998Z,99755.28
2018-06-11T20:45:32.058Z,99755.28
2018-06-11T20:48:01.130Z,99751.22
2018-06-11T20:50:29.956Z,99750.06
2018-06-11T20:52:58.695Z,99746.85
2018-06-11T20:55:27.654Z,99747.83
2018-06-11T20:57:56.527Z,99755.48
2018-06-11T21:00:25.714Z,99751.89
2018-06-11T21:02:54.677Z,99759.71
2018-06-11T21:05:23.522Z,99757.00
2018-06-11T21:07:52.432Z,99761.06
2018-06-11T21:10:21.161Z,99756.16
2018-06-11T21:12:50.069Z,99756.66
2018-06-11T21:15:18.821Z,99757.67
2018-06-11T21:17:47.637Z,99758.52
2018-06-11T21:20:16.341Z,99750.09
2018-06-11T21:22:45.153Z,99750.91
2018-06-11T21:25:13.910Z,99756.52
2018-06-11T21:27:42.660Z,99758.07
2018-06-11T21:30:11.573Z,99757.03
2018-06-11T21:32:40.283Z,99753.47
2018-06-11T21:35:09.968Z,99751.30
2018-06-11T21:37:38.736Z,99754.83
2018-06-11T21:40:07.463Z,99756.18
2018-06-11T21:42:36.208Z,99749.61
2018-06-11T21:45:05.110Z,99754.17
2018-06-11T21:47:33.849Z,99751.13
2018-06-11T21:50:02.555Z,99750.31
2018-06-11T21:52:31.330Z,99748.62
2018-06-11T21:55:00.123Z,99758.09
2018-06-11T21:57:28.822Z,99764.86
2018-06-11T21:59:57.522Z,99761.31
2018-06-11T22:02:26.252Z,99763.17
2018-06-11T22:04:55.023Z,99764.02
2018-06-11T22:07:23.720Z,99765.88
2018-06-11T22:09:52.638Z,99768.28
2018-06-11T22:12:21.666Z,99775.35
2018-06-11T22:14:50.634Z,99774.84
2018-06-11T22:17:19.335Z,99777.05
2018-06-11T22:19:48.230Z,99781.11
2018-06-11T22:22:17.221Z,99771.30
2018-06-11T22:24:46.098Z,99770.28
2018-06-11T22:27:14.865Z,99773.49
2018-06-11T22:29:43.604Z,99772.48
2018-06-11T22:32:13.692Z,99775.19
2018-06-11T22:34:42.759Z,99773.84
2018-06-11T22:37:11.753Z,99775.70
2018-06-11T22:39:40.625Z,99778.41
2018-06-11T22:42:09.642Z,99775.19
2018-06-11T22:44:38.877Z,99777.89
2018-06-11T22:47:07.864Z,99770.78
2018-06-11T22:49:36.848Z,99771.13
2018-06-11T22:52:06.273Z,99771.64
2018-06-11T22:54:35.221Z,99774.00
2018-06-11T22:57:04.108Z,99770.28
2018-06-11T22:59:32.990Z,99770.28
2018-06-11T23:02:01.895Z,99771.64
2018-06-11T23:04:30.888Z,99769.44
2018-06-11T23:06:59.925Z,99771.64
2018-06-11T23:09:28.871Z,99772.14
2018-06-11T23:11:57.965Z,99777.25
2018-06-11T23:14:27.019Z,99779.11
2018-06-11T23:16:55.905Z,99783.48
2018-06-11T23:19:24.866Z,99784.83
2018-06-11T23:21:53.884Z,99779.42
2018-06-11T23:24:22.817Z,99781.81
2018-06-11T23:26:51.573Z,99780.77
2018-06-11T23:29:20.512Z,99784.02
2018-06-11T23:31:49.458Z,99771.49
2018-06-11T23:34:18.160Z,99770.98
2018-06-11T23:36:47.083Z,99766.08
2018-06-11T23:39:15.924Z,99764.72
2018-06-11T23:41:44.891Z,99771.49
2018-06-11T23:44:13.757Z,99767.43
2018-06-11T23:46:42.752Z,99770.64
2018-06-11T23:49:11.718Z,99769.80
2018-06-11T23:51:40.543Z,99768.98
2018-06-11T23:54:09.388Z,99771.69
2018-06-11T23:56:38.078Z,99771.69
2018-06-11T23:59:06.778Z,99777.10
